Hundvaag 1 weather for Apr 2003
Month no. 190
Obs.
Da.
Temp. Dew Point Precip. Wind
Speed
Wind gusts Cloud cover Press. Humidity Wind dir. Sunny OPT
01.04.2003 6,5   0,2 28,0   1 1007,9 81,0 180,0 1 45,0 %
02.04.2003 4,1   20,8 10,0   3 1001,4 93,0 337,5 1 45,0 %
03.04.2003 1,8   0,0 14,0   10 1015,1 75,0 0,0 1 72,5 %
04.04.2003 6,1   2,0 7,0   0 1015,9 100,0 270,0 1 57,5 %
05.04.2003 3,5   0,1 28,0   9 1020,9 65,0 337,5 1 62,5 %
06.04.2003 3,7   0,0 2,0   10 1023,5 45,0   1 82,5 %
07.04.2003 0,3   0,0 6,0   9 1023,3 60,0 135,0 1 75,0 %
08.04.2003 0,3   0,0 2,0   9 1021,4 87,0 90,0 1 77,5 %
09.04.2003 0,0   0,0 2,0   10 1020,7 91,0 112,5 1 80,0 %
10.04.2003 5,2   0,0 10,0   8 1015,3 70,0 0,0 1 75,0 %
11.04.2003 4,1   0,0 20,0   1 1007,4 65,0 112,5 1 47,5 %
12.04.2003 8,2   0,0 7,0   4 1010,6 81,0 135,0 1 70,0 %
13.04.2003 9,1   0,1 6,0   8 1020,8 71,0 90,0 1 80,0 %
14.04.2003 10,9   0,0 18,0   9 1021,8 47,0 135,0 1 77,5 %
15.04.2003 10,3   0,0 14,0   3 1022,2 41,0 135,0 1 65,0 %
16.04.2003 6,8   0,0 6,0   10 1030,2 55,0 157,5 1 82,5 %
17.04.2003 4,7   0,0 1,0   10 1034,9 72,0 270,0 1 82,5 %
18.04.2003 3,6   0,0 3,0   10 1040,5 74,0 292,5 1 82,5 %
19.04.2003 5,8   0,0 10,0   10 1037,0 76,0 22,5 1 80,0 %
20.04.2003 10,8   0,0 9,0   10 1021,2 50,0 45,0 1 85,0 %
21.04.2003 10,3   0,0 13,0   3 1018,6 25,0 90,0 1 65,0 %
22.04.2003 7,6   0,0 0,0   10 1018,1 57,0   1 87,5 %
23.04.2003 6,8   0,0 0,0   9 1016,3 81,0   1 82,5 %
24.04.2003 3,4   0,0 2,0   10 1017,3 100,0   1 82,5 %
25.04.2003 5,7   0,0 1,0   10 1017,5 100,0   1 85,0 %
26.04.2003 10,0   0,0 25,0   0 1008,2 66,0 112,5 1 50,0 %
27.04.2003 9,1   6,0 3,0   0 1004,1 93,0 90,0 1 57,5 %
28.04.2003 7,5   2,4 1,0   0 1004,6 93,0   1 62,5 %
29.04.2003 9,9   1,3 18,0   0 999,1 71,0 135,0   52,5 %
30.04.2003 7,9   3,7 13,0   0 1005,7 87,0 202,5   52,5 %
                       
Avrg/Sum 6,1   36,6 9,3   6,2 1017,4 72,4 145,3 28 70,1 %